Time;durP1;ratioP1;P1;durP2;ratioP2;P2;SDS_P1;SDS_P2;PMS_P1;PMS_P2;Temp;Humidity;BMP_temperature;BMP_pressure;BME280_temperature;BME280_humidity;BME280_pressure;Samples;Min_cycle;Max_cycle;Signal;HPM_P1;HPM_P2
2023/05/23 00:01:06;;;;;;;31.95;16.63;;;;;;;;;;5034669;28;20520;-68
2023/05/23 00:03:32;;;;;;;35.00;16.08;;;;;;;;;;5033732;28;20100;-68
2023/05/23 00:05:58;;;;;;;34.75;16.15;;;;;;;;;;5035245;28;20188;-69
2023/05/23 00:08:24;;;;;;;38.13;15.43;;;;;;;;;;5035385;28;20117;-67
2023/05/23 00:10:50;;;;;;;30.35;14.57;;;;;;;;;;5017225;28;20132;-68
2023/05/23 00:13:16;;;;;;;29.42;14.35;;;;;;;;;;5035122;28;20079;-68
2023/05/23 00:15:42;;;;;;;29.00;15.70;;;;;;;;;;5035251;28;20045;-68
2023/05/23 00:18:10;;;;;;;33.83;16.50;;;;;;;;;;5035154;28;20046;-68
2023/05/23 00:20:39;;;;;;;33.65;17.42;;;;;;;;;;5040014;28;20048;-68
2023/05/23 00:23:06;;;;;;;30.60;15.75;;;;;;;;;;5055822;28;20041;-68
2023/05/23 00:25:33;;;;;;;28.05;14.02;;;;;;;;;;5043933;28;20098;-68
2023/05/23 00:28:05;;;;;;;28.00;14.13;;;;;;;;;;5035342;28;20049;-68
2023/05/23 00:30:31;;;;;;;29.88;14.90;;;;;;;;;;5033509;28;20131;-68
2023/05/23 00:32:59;;;;;;;24.70;14.98;;;;;;;;;;5034188;28;20043;-68
2023/05/23 00:35:25;;;;;;;31.88;14.93;;;;;;;;;;5017195;28;20050;-68
2023/05/23 00:37:51;;;;;;;26.95;14.80;;;;;;;;;;5047302;28;20375;-68
2023/05/23 00:40:18;;;;;;;29.63;16.15;;;;;;;;;;5054321;28;20044;-68
2023/05/23 00:42:44;;;;;;;28.33;15.70;;;;;;;;;;5054800;28;20048;-68
2023/05/23 00:45:13;;;;;;;31.17;15.75;;;;;;;;;;5054709;28;20128;-68
2023/05/23 00:47:39;;;;;;;26.83;14.88;;;;;;;;;;5036708;28;20091;-68
2023/05/23 00:50:07;;;;;;;21.70;14.00;;;;;;;;;;5047511;28;20099;-68
2023/05/23 00:52:34;;;;;;;25.83;14.73;;;;;;;;;;5016649;28;20045;-68
2023/05/23 00:55:00;;;;;;;25.95;13.95;;;;;;;;;;5034268;28;20052;-67
2023/05/23 00:57:26;;;;;;;25.15;13.35;;;;;;;;;;5034391;28;20114;-67
2023/05/23 00:59:52;;;;;;;21.33;11.85;;;;;;;;;;5033792;28;20104;-67
2023/05/23 01:02:20;;;;;;;21.73;12.02;;;;;;;;;;5034050;28;20037;-68
2023/05/23 01:04:46;;;;;;;20.20;11.80;;;;;;;;;;5033747;28;20091;-68
2023/05/23 01:07:13;;;;;;;17.33;10.45;;;;;;;;;;5034339;28;20494;-68
2023/05/23 01:09:39;;;;;;;17.30;9.88;;;;;;;;;;5016411;28;20124;-68
2023/05/23 01:12:20;;;;;;;18.08;9.63;;;;;;;;;;5030554;28;20041;-68
2023/05/23 01:14:48;;;;;;;15.80;9.32;;;;;;;;;;5033571;28;20060;-69
2023/05/23 01:17:21;;;;;;;18.02;9.38;;;;;;;;;;5034094;28;20041;-68
2023/05/23 01:19:53;;;;;;;14.75;8.88;;;;;;;;;;5033755;28;20096;-67
2023/05/23 01:22:31;;;;;;;16.65;7.47;;;;;;;;;;5036766;28;20041;-67
2023/05/23 01:25:05;;;;;;;14.50;7.68;;;;;;;;;;5053928;28;20513;-68
2023/05/23 01:27:47;;;;;;;22.40;8.60;;;;;;;;;;5038809;28;20053;-68
2023/05/23 01:30:13;;;;;;;25.45;9.35;;;;;;;;;;5014363;28;20415;-68
2023/05/23 01:32:39;;;;;;;18.63;9.55;;;;;;;;;;5032676;28;20041;-68
2023/05/23 01:35:06;;;;;;;22.33;9.43;;;;;;;;;;5032202;28;20056;-68
2023/05/23 01:37:32;;;;;;;24.27;9.18;;;;;;;;;;5033457;28;20045;-68
2023/05/23 01:39:58;;;;;;;22.02;9.07;;;;;;;;;;5033307;28;20037;-69
2023/05/23 01:42:26;;;;;;;21.08;9.85;;;;;;;;;;5033096;28;20470;-68
2023/05/23 01:44:52;;;;;;;27.23;9.90;;;;;;;;;;5033379;28;20048;-68
2023/05/23 01:47:20;;;;;;;24.70;9.70;;;;;;;;;;5033341;28;20080;-68
2023/05/23 01:49:47;;;;;;;24.75;9.68;;;;;;;;;;5031546;28;20049;-69
2023/05/23 01:52:14;;;;;;;24.77;10.70;;;;;;;;;;5031874;28;20500;-68
2023/05/23 01:54:42;;;;;;;25.42;9.93;;;;;;;;;;5031920;28;20083;-68
2023/05/23 01:57:08;;;;;;;28.92;9.85;;;;;;;;;;5033514;28;20041;-68
2023/05/23 01:59:34;;;;;;;25.42;10.48;;;;;;;;;;5031628;28;20045;-68
2023/05/23 02:02:00;;;;;;;25.45;10.18;;;;;;;;;;5014982;28;20054;-68
2023/05/23 02:04:27;;;;;;;26.50;10.40;;;;;;;;;;5031419;28;20191;-68
2023/05/23 02:06:53;;;;;;;26.55;11.13;;;;;;;;;;5031094;28;20140;-68
2023/05/23 02:09:19;;;;;;;26.95;11.27;;;;;;;;;;5013370;28;20133;-68
2023/05/23 02:11:45;;;;;;;28.27;10.70;;;;;;;;;;5031462;28;20041;-68
2023/05/23 02:14:11;;;;;;;24.23;10.20;;;;;;;;;;5032465;28;20042;-68
2023/05/23 02:16:38;;;;;;;25.25;10.30;;;;;;;;;;5032703;28;20399;-68
2023/05/23 02:19:04;;;;;;;25.73;10.02;;;;;;;;;;5033035;28;20076;-68
2023/05/23 02:21:30;;;;;;;22.38;9.27;;;;;;;;;;5032452;28;20391;-68
2023/05/23 02:23:56;;;;;;;26.83;10.13;;;;;;;;;;5032729;28;20060;-69
2023/05/23 02:26:22;;;;;;;24.63;8.55;;;;;;;;;;5032434;28;20092;-68
2023/05/23 02:28:48;;;;;;;22.35;9.57;;;;;;;;;;5033362;28;20139;-68
2023/05/23 02:31:16;;;;;;;22.52;8.85;;;;;;;;;;5032403;28;20408;-68
2023/05/23 02:33:42;;;;;;;21.27;9.40;;;;;;;;;;5032821;28;20052;-68
2023/05/23 02:36:08;;;;;;;24.58;8.73;;;;;;;;;;5030999;28;20046;-69
2023/05/23 02:38:34;;;;;;;24.75;8.98;;;;;;;;;;5014021;28;20041;-68
2023/05/23 02:41:00;;;;;;;26.15;9.27;;;;;;;;;;5030534;28;20140;-67
2023/05/23 02:43:26;;;;;;;27.00;9.82;;;;;;;;;;5032594;28;20069;-69
2023/05/23 02:45:52;;;;;;;27.90;9.27;;;;;;;;;;5013598;28;20046;-69
2023/05/23 02:48:18;;;;;;;27.98;8.30;;;;;;;;;;5032744;28;20103;-68
2023/05/23 02:50:44;;;;;;;24.95;8.27;;;;;;;;;;5012864;28;20037;-69
2023/05/23 02:53:10;;;;;;;28.77;8.38;;;;;;;;;;5031214;28;20042;-68
2023/05/23 02:55:37;;;;;;;27.98;8.80;;;;;;;;;;5013989;28;20405;-68
2023/05/23 02:58:04;;;;;;;18.98;7.72;;;;;;;;;;5032891;28;20104;-68
2023/05/23 03:00:31;;;;;;;25.70;8.43;;;;;;;;;;5031950;28;20460;-68
2023/05/23 03:02:57;;;;;;;23.65;8.25;;;;;;;;;;5029747;28;20486;-68
2023/05/23 03:05:23;;;;;;;24.77;9.57;;;;;;;;;;5031184;28;20058;-68
2023/05/23 03:07:50;;;;;;;31.23;9.98;;;;;;;;;;5032247;28;20088;-68
2023/05/23 03:10:16;;;;;;;31.80;9.57;;;;;;;;;;5030422;28;20421;-69
2023/05/23 03:12:43;;;;;;;25.20;9.70;;;;;;;;;;5013879;28;20498;-68
2023/05/23 03:15:09;;;;;;;24.73;9.07;;;;;;;;;;5032234;28;20045;-68
2023/05/23 03:17:35;;;;;;;23.58;8.82;;;;;;;;;;5031966;28;20057;-68
2023/05/23 03:20:02;;;;;;;21.52;9.32;;;;;;;;;;5014136;28;20379;-68
2023/05/23 03:22:28;;;;;;;21.50;7.93;;;;;;;;;;5024976;28;20049;-68
2023/05/23 03:24:54;;;;;;;22.60;8.32;;;;;;;;;;5050861;28;20485;-68
2023/05/23 03:27:20;;;;;;;21.33;7.68;;;;;;;;;;5033657;28;20050;-68
2023/05/23 03:29:47;;;;;;;23.77;7.63;;;;;;;;;;5032019;28;20517;-68
2023/05/23 03:32:13;;;;;;;20.10;7.32;;;;;;;;;;5014366;28;20057;-69
2023/05/23 03:34:39;;;;;;;16.10;6.75;;;;;;;;;;5032053;28;20038;-68
2023/05/23 03:37:05;;;;;;;18.25;7.30;;;;;;;;;;5031928;28;20073;-69
2023/05/23 03:39:31;;;;;;;24.27;6.82;;;;;;;;;;5049057;28;20033;-68
2023/05/23 03:41:57;;;;;;;19.90;7.18;;;;;;;;;;5051729;28;20041;-68
2023/05/23 03:44:23;;;;;;;21.38;7.18;;;;;;;;;;5052203;28;20045;-68
2023/05/23 03:46:49;;;;;;;23.10;7.10;;;;;;;;;;5053993;28;20041;-69
2023/05/23 03:49:15;;;;;;;17.40;6.45;;;;;;;;;;5052167;28;20049;-69
2023/05/23 03:51:41;;;;;;;18.33;6.25;;;;;;;;;;5047265;28;20037;-68
2023/05/23 03:54:07;;;;;;;20.70;7.07;;;;;;;;;;5031551;28;20050;-68
2023/05/23 03:56:33;;;;;;;21.17;6.30;;;;;;;;;;5031097;28;20509;-68
2023/05/23 03:59:00;;;;;;;18.90;6.18;;;;;;;;;;5015748;28;20049;-68
2023/05/23 04:01:26;;;;;;;16.13;6.15;;;;;;;;;;5017154;28;20059;-68
2023/05/23 04:03:52;;;;;;;15.18;5.90;;;;;;;;;;5017771;28;20433;-68
2023/05/23 04:06:19;;;;;;;17.38;6.40;;;;;;;;;;5017208;28;20073;-68
2023/05/23 04:08:45;;;;;;;20.40;6.95;;;;;;;;;;5035451;28;20132;-70
2023/05/23 04:11:11;;;;;;;18.30;6.10;;;;;;;;;;5034327;28;20052;-68
2023/05/23 04:13:37;;;;;;;18.85;6.28;;;;;;;;;;5035119;28;20080;-69
2023/05/23 04:16:04;;;;;;;22.17;6.22;;;;;;;;;;5034978;28;20091;-68
2023/05/23 04:18:33;;;;;;;20.95;6.45;;;;;;;;;;5017558;28;20049;-68
2023/05/23 04:20:59;;;;;;;15.98;5.82;;;;;;;;;;5034633;28;20053;-68
2023/05/23 04:23:25;;;;;;;18.63;5.78;;;;;;;;;;5034418;28;20049;-68
2023/05/23 04:25:51;;;;;;;12.18;4.55;;;;;;;;;;5016409;28;20511;-68
2023/05/23 04:28:17;;;;;;;15.40;5.00;;;;;;;;;;5033206;28;20053;-68
2023/05/23 04:30:44;;;;;;;16.67;5.00;;;;;;;;;;5033299;28;20038;-68
2023/05/23 04:33:10;;;;;;;18.58;4.78;;;;;;;;;;5017366;28;20046;-68
2023/05/23 04:35:39;;;;;;;15.02;4.80;;;;;;;;;;5034565;28;20124;-68
2023/05/23 04:38:05;;;;;;;16.95;5.13;;;;;;;;;;5016751;28;20052;-69
2023/05/23 04:40:31;;;;;;;18.60;5.28;;;;;;;;;;5033602;28;20049;-68
2023/05/23 04:42:57;;;;;;;15.40;5.00;;;;;;;;;;5034778;28;20038;-69
2023/05/23 04:45:25;;;;;;;23.30;5.60;;;;;;;;;;5033112;28;20128;-69
2023/05/23 04:47:53;;;;;;;16.92;5.57;;;;;;;;;;5016865;28;20050;-69
2023/05/23 04:50:21;;;;;;;20.02;5.85;;;;;;;;;;5034161;28;20049;-69
2023/05/23 04:52:47;;;;;;;17.50;6.07;;;;;;;;;;5016155;28;20103;-69
2023/05/23 04:55:13;;;;;;;24.30;7.22;;;;;;;;;;5034261;28;20057;-69
2023/05/23 04:57:39;;;;;;;22.17;7.80;;;;;;;;;;5015697;28;20128;-68
2023/05/23 05:00:09;;;;;;;21.67;8.00;;;;;;;;;;5033313;28;20546;-68
2023/05/23 05:02:36;;;;;;;25.65;8.27;;;;;;;;;;5034157;28;20041;-68
2023/05/23 05:05:03;;;;;;;25.30;8.70;;;;;;;;;;5012708;28;20422;-68
2023/05/23 05:07:29;;;;;;;25.63;8.80;;;;;;;;;;5013963;28;20069;-68
2023/05/23 05:09:55;;;;;;;20.98;8.63;;;;;;;;;;5012121;28;20076;-68
2023/05/23 05:12:21;;;;;;;24.88;8.65;;;;;;;;;;5013589;28;20053;-68
2023/05/23 05:14:47;;;;;;;27.40;9.10;;;;;;;;;;5030902;28;20037;-68
2023/05/23 05:17:13;;;;;;;23.77;8.07;;;;;;;;;;5011972;28;20053;-68
2023/05/23 05:19:39;;;;;;;23.08;8.35;;;;;;;;;;5013996;28;20045;-68
2023/05/23 05:22:06;;;;;;;20.75;7.97;;;;;;;;;;5016762;28;20124;-68
2023/05/23 05:24:32;;;;;;;17.55;7.18;;;;;;;;;;5032009;28;20057;-68
2023/05/23 05:26:58;;;;;;;21.20;8.07;;;;;;;;;;5023709;28;20498;-68
2023/05/23 05:29:25;;;;;;;18.55;7.18;;;;;;;;;;5013724;28;20450;-68
2023/05/23 05:31:52;;;;;;;19.40;7.32;;;;;;;;;;5011036;28;20057;-68
2023/05/23 05:34:18;;;;;;;14.93;7.00;;;;;;;;;;5012752;28;20135;-68
2023/05/23 05:36:47;;;;;;;15.52;6.18;;;;;;;;;;5013941;28;20050;-69
2023/05/23 05:39:13;;;;;;;18.63;6.68;;;;;;;;;;5024372;28;20045;-68
2023/05/23 05:41:39;;;;;;;18.75;6.28;;;;;;;;;;5033734;28;20056;-69
2023/05/23 05:44:05;;;;;;;17.45;5.60;;;;;;;;;;5042819;28;20056;-70
2023/05/23 05:46:31;;;;;;;18.73;6.03;;;;;;;;;;5032035;28;20041;-70
2023/05/23 05:48:57;;;;;;;15.38;5.45;;;;;;;;;;5019402;28;20426;-70
2023/05/23 05:51:23;;;;;;;14.32;5.38;;;;;;;;;;5012809;28;20144;-70
2023/05/23 05:53:49;;;;;;;15.30;5.40;;;;;;;;;;5012588;28;20050;-70
2023/05/23 05:56:15;;;;;;;10.77;4.85;;;;;;;;;;5013470;28;20044;-71
2023/05/23 05:58:42;;;;;;;11.68;4.88;;;;;;;;;;5012358;28;20042;-70
2023/05/23 06:01:08;;;;;;;12.68;4.72;;;;;;;;;;5013315;28;20046;-68
2023/05/23 06:03:34;;;;;;;15.80;5.15;;;;;;;;;;5016393;28;20060;-70
2023/05/23 06:06:00;;;;;;;18.73;5.05;;;;;;;;;;5031855;28;20053;-70
2023/05/23 06:08:26;;;;;;;19.17;5.57;;;;;;;;;;5031271;28;20068;-69
2023/05/23 06:10:53;;;;;;;18.38;5.13;;;;;;;;;;5032803;28;20049;-70
2023/05/23 06:13:19;;;;;;;15.13;4.68;;;;;;;;;;5033465;28;20376;-70
2023/05/23 06:15:45;;;;;;;14.65;4.50;;;;;;;;;;5030805;28;20048;-69
2023/05/23 06:18:11;;;;;;;16.40;4.65;;;;;;;;;;5032365;28;20084;-70
2023/05/23 06:20:37;;;;;;;21.48;4.60;;;;;;;;;;5031740;28;20160;-69
2023/05/23 06:23:04;;;;;;;14.30;4.95;;;;;;;;;;5032947;28;20143;-69
2023/05/23 06:25:30;;;;;;;15.50;4.95;;;;;;;;;;5031103;28;20096;-69
2023/05/23 06:27:56;;;;;;;21.13;4.65;;;;;;;;;;5014530;28;20103;-70
2023/05/23 06:30:23;;;;;;;18.85;4.72;;;;;;;;;;5032385;28;20049;-70
2023/05/23 06:32:49;;;;;;;17.08;4.68;;;;;;;;;;5032356;28;20140;-69
2023/05/23 06:35:16;;;;;;;18.33;4.63;;;;;;;;;;5013795;28;20084;-69
2023/05/23 06:37:44;;;;;;;18.35;4.57;;;;;;;;;;5031461;28;20060;-69
2023/05/23 06:40:13;;;;;;;13.13;4.00;;;;;;;;;;5031859;28;20045;-69
2023/05/23 06:42:39;;;;;;;21.10;4.60;;;;;;;;;;5031087;28;20052;-69
2023/05/23 06:45:05;;;;;;;19.90;4.68;;;;;;;;;;5032551;28;20454;-69
2023/05/23 06:47:31;;;;;;;16.55;4.38;;;;;;;;;;5031998;28;20045;-69
2023/05/23 06:49:57;;;;;;;23.75;4.90;;;;;;;;;;5030379;28;20184;-69
2023/05/23 06:52:24;;;;;;;56.75;7.47;;;;;;;;;;5031805;28;20046;-69
2023/05/23 06:54:50;;;;;;;18.55;4.47;;;;;;;;;;5027766;28;20064;-69
2023/05/23 06:57:16;;;;;;;19.98;4.60;;;;;;;;;;5050620;28;20045;-69
2023/05/23 06:59:42;;;;;;;20.75;4.70;;;;;;;;;;5031243;28;20045;-69
2023/05/23 07:02:09;;;;;;;21.05;4.55;;;;;;;;;;5035581;28;20038;-69
2023/05/23 07:04:35;;;;;;;17.27;4.30;;;;;;;;;;5034029;28;20092;-70
2023/05/23 07:07:01;;;;;;;29.63;5.57;;;;;;;;;;5031550;28;20123;-70
2023/05/23 07:09:27;;;;;;;18.52;4.65;;;;;;;;;;5031885;28;20045;-70
2023/05/23 07:11:53;;;;;;;21.63;4.85;;;;;;;;;;5027546;28;20056;-70
2023/05/23 07:14:19;;;;;;;23.02;4.95;;;;;;;;;;5030173;28;20041;-71
2023/05/23 07:16:46;;;;;;;18.58;4.80;;;;;;;;;;5027502;28;20046;-70
2023/05/23 07:19:12;;;;;;;21.30;5.22;;;;;;;;;;5004376;28;20049;-71
2023/05/23 07:21:38;;;;;;;19.67;4.53;;;;;;;;;;5029942;28;20103;-71
2023/05/23 07:24:04;;;;;;;21.60;4.25;;;;;;;;;;5040104;28;20510;-71
2023/05/23 07:26:30;;;;;;;19.70;4.30;;;;;;;;;;5048501;28;20049;-71
2023/05/23 07:28:56;;;;;;;22.52;4.35;;;;;;;;;;5045001;28;20087;-69
2023/05/23 07:31:22;;;;;;;22.88;5.15;;;;;;;;;;5038072;28;20400;-69
2023/05/23 07:33:48;;;;;;;18.27;4.20;;;;;;;;;;5043555;28;20037;-69
2023/05/23 07:36:15;;;;;;;13.95;3.78;;;;;;;;;;5035879;28;20041;-69
2023/05/23 07:38:41;;;;;;;17.67;3.78;;;;;;;;;;5036077;28;20128;-70
2023/05/23 07:41:07;;;;;;;17.42;4.07;;;;;;;;;;5035327;28;20088;-70
2023/05/23 07:43:33;;;;;;;22.85;4.00;;;;;;;;;;5034760;28;20045;-71
2023/05/23 07:46:02;;;;;;;19.80;4.65;;;;;;;;;;5033256;28;20045;-71
2023/05/23 07:48:28;;;;;;;24.13;4.15;;;;;;;;;;5035708;28;20103;-70
2023/05/23 07:50:54;;;;;;;14.07;3.40;;;;;;;;;;5035457;28;20041;-69
2023/05/23 07:53:21;;;;;;;20.80;4.50;;;;;;;;;;5017551;28;20053;-69
2023/05/23 07:55:47;;;;;;;17.95;4.03;;;;;;;;;;5039651;28;20073;-70
2023/05/23 07:58:13;;;;;;;20.20;4.82;;;;;;;;;;5035026;28;20435;-69
2023/05/23 08:00:40;;;;;;;20.95;4.80;;;;;;;;;;5051273;28;20468;-69
2023/05/23 08:03:06;;;;;;;14.38;3.72;;;;;;;;;;5021661;28;20456;-70
2023/05/23 08:05:32;;;;;;;20.30;4.50;;;;;;;;;;5034683;28;20414;-70
2023/05/23 08:07:58;;;;;;;17.13;4.85;;;;;;;;;;5017064;28;20057;-70
2023/05/23 08:10:27;;;;;;;20.83;4.53;;;;;;;;;;5017189;28;20446;-70
2023/05/23 08:12:53;;;;;;;19.27;4.35;;;;;;;;;;5035381;28;20377;-70
2023/05/23 08:15:20;;;;;;;18.00;3.88;;;;;;;;;;5033949;28;20152;-70
2023/05/23 08:17:46;;;;;;;13.07;3.63;;;;;;;;;;5017540;28;20049;-71
2023/05/23 08:20:12;;;;;;;14.23;4.07;;;;;;;;;;5017095;28;20049;-70
2023/05/23 08:22:41;;;;;;;14.77;3.75;;;;;;;;;;5035221;28;20037;-70
2023/05/23 08:25:07;;;;;;;16.92;4.20;;;;;;;;;;5016929;28;20088;-70
2023/05/23 08:27:34;;;;;;;17.15;4.00;;;;;;;;;;5034739;28;20509;-70
2023/05/23 08:30:01;;;;;;;20.00;4.32;;;;;;;;;;5017231;28;20060;-70
2023/05/23 08:32:27;;;;;;;20.63;4.15;;;;;;;;;;5016752;28;20049;-70
2023/05/23 08:34:53;;;;;;;20.63;3.97;;;;;;;;;;5034267;28;20107;-70
2023/05/23 08:37:19;;;;;;;21.42;4.55;;;;;;;;;;5034831;28;20041;-70
2023/05/23 08:39:45;;;;;;;19.08;4.07;;;;;;;;;;5000378;28;20045;-70
2023/05/23 08:42:11;;;;;;;20.85;4.05;;;;;;;;;;5034777;28;20045;-70
2023/05/23 08:44:39;;;;;;;14.35;4.10;;;;;;;;;;5034385;28;20049;-70
2023/05/23 08:47:07;;;;;;;15.85;4.07;;;;;;;;;;5034786;28;20371;-71
2023/05/23 08:49:34;;;;;;;21.33;4.18;;;;;;;;;;5034527;28;20462;-69
2023/05/23 08:52:02;;;;;;;17.55;4.50;;;;;;;;;;5034525;28;20061;-69
2023/05/23 08:54:29;;;;;;;21.45;4.75;;;;;;;;;;5033369;28;20049;-69
2023/05/23 08:56:58;;;;;;;16.38;3.72;;;;;;;;;;5016690;28;20041;-69
2023/05/23 08:59:26;;;;;;;24.02;4.10;;;;;;;;;;5034481;28;20082;-69
2023/05/23 09:01:54;;;;;;;16.17;4.38;;;;;;;;;;5034263;28;20049;-70
2023/05/23 09:04:20;;;;;;;19.85;4.50;;;;;;;;;;5034352;28;20060;-70
2023/05/23 09:06:46;;;;;;;14.45;3.55;;;;;;;;;;5034196;28;20092;-70
2023/05/23 09:09:12;;;;;;;17.70;3.72;;;;;;;;;;5034299;28;20414;-70
2023/05/23 09:11:38;;;;;;;12.90;3.53;;;;;;;;;;5016463;28;20060;-70
2023/05/23 09:14:06;;;;;;;15.32;3.85;;;;;;;;;;5034061;28;20136;-71
2023/05/23 09:16:33;;;;;;;21.52;4.28;;;;;;;;;;5032069;28;20461;-70
2023/05/23 09:19:09;;;;;;;17.70;4.22;;;;;;;;;;5032633;28;20071;-71
2023/05/23 09:21:36;;;;;;;17.83;4.00;;;;;;;;;;5032181;28;20111;-71
2023/05/23 09:24:02;;;;;;;20.17;4.30;;;;;;;;;;5032231;28;20064;-70
2023/05/23 09:26:28;;;;;;;18.95;3.92;;;;;;;;;;5033855;28;20043;-70
2023/05/23 09:28:58;;;;;;;14.93;3.50;;;;;;;;;;5016370;28;20042;-70
2023/05/23 09:31:27;;;;;;;15.57;3.75;;;;;;;;;;5033841;28;20109;-70
2023/05/23 09:33:53;;;;;;;18.70;3.75;;;;;;;;;;5032353;28;20596;-70
2023/05/23 09:36:19;;;;;;;15.52;3.90;;;;;;;;;;5016176;28;20378;-69
2023/05/23 09:38:51;;;;;;;17.48;3.65;;;;;;;;;;5015956;28;20041;-70
2023/05/23 09:41:19;;;;;;;17.35;4.20;;;;;;;;;;5033704;28;20043;-70
2023/05/23 09:43:52;;;;;;;20.00;4.60;;;;;;;;;;5033780;28;20447;-70
2023/05/23 09:46:19;;;;;;;14.43;4.03;;;;;;;;;;5033470;28;20045;-70
2023/05/23 09:48:52;;;;;;;17.25;4.47;;;;;;;;;;5033619;28;20098;-71
2023/05/23 09:51:22;;;;;;;17.45;3.60;;;;;;;;;;5033195;28;20054;-70
2023/05/23 09:53:48;;;;;;;16.33;4.10;;;;;;;;;;5015748;28;20458;-70
2023/05/23 09:56:16;;;;;;;10.75;3.60;;;;;;;;;;5031419;28;20500;-70
2023/05/23 09:58:48;;;;;;;15.70;3.55;;;;;;;;;;5032143;28;20049;-70
2023/05/23 10:01:15;;;;;;;17.23;3.78;;;;;;;;;;5015180;28;20124;-70
2023/05/23 10:03:45;;;;;;;12.07;3.15;;;;;;;;;;5015454;28;20072;-70
2023/05/23 10:06:21;;;;;;;15.68;3.47;;;;;;;;;;5033247;28;20437;-70
2023/05/23 10:08:51;;;;;;;21.08;4.00;;;;;;;;;;5015586;28;20056;-70
2023/05/23 10:11:49;;;;;;;15.98;3.63;;;;;;;;;;5015251;28;20136;-70
2023/05/23 10:14:16;;;;;;;14.68;3.53;;;;;;;;;;5033171;28;20045;-71
2023/05/23 10:16:42;;;;;;;11.88;3.55;;;;;;;;;;5033137;28;20048;-70
2023/05/23 10:19:27;;;;;;;17.10;3.80;;;;;;;;;;5032141;28;20111;-70
2023/05/23 10:22:04;;;;;;;13.80;3.83;;;;;;;;;;5036538;28;20129;-71
2023/05/23 10:24:30;;;;;;;14.10;3.70;;;;;;;;;;5034433;28;20037;-71
2023/05/23 10:26:57;;;;;;;13.23;3.55;;;;;;;;;;5031642;28;20045;-70
2023/05/23 10:29:24;;;;;;;17.75;4.15;;;;;;;;;;5032744;28;20125;-70
2023/05/23 10:31:51;;;;;;;19.33;3.58;;;;;;;;;;5032711;28;20045;-70
2023/05/23 10:34:20;;;;;;;17.85;3.97;;;;;;;;;;5015235;28;20441;-70
2023/05/23 10:37:01;;;;;;;16.40;3.95;;;;;;;;;;5015213;28;20056;-70
2023/05/23 10:39:40;;;;;;;11.95;3.50;;;;;;;;;;5032120;28;20111;-70
2023/05/23 10:42:17;;;;;;;13.82;3.78;;;;;;;;;;5032562;28;20103;-70
2023/05/23 10:44:43;;;;;;;13.82;3.70;;;;;;;;;;5032556;28;20047;-70
2023/05/23 10:47:09;;;;;;;12.75;3.42;;;;;;;;;;5032713;28;20406;-70
2023/05/23 10:49:51;;;;;;;12.93;3.20;;;;;;;;;;5032422;28;20037;-70
2023/05/23 10:52:17;;;;;;;11.40;3.63;;;;;;;;;;5031213;28;20106;-70
2023/05/23 10:54:44;;;;;;;13.70;3.30;;;;;;;;;;5032542;28;20077;-69
2023/05/23 10:57:20;;;;;;;10.48;3.03;;;;;;;;;;5032387;28;20143;-70
2023/05/23 10:59:47;;;;;;;9.90;3.25;;;;;;;;;;5032321;28;20045;-71
2023/05/23 11:02:14;;;;;;;11.07;3.15;;;;;;;;;;5014366;28;20053;-70
2023/05/23 11:04:41;;;;;;;11.65;3.28;;;;;;;;;;5030764;28;20504;-70
2023/05/23 11:07:27;;;;;;;12.85;3.25;;;;;;;;;;5013001;28;20475;-71
2023/05/23 11:10:12;;;;;;;16.70;3.42;;;;;;;;;;5032165;28;20041;-70
2023/05/23 11:12:43;;;;;;;10.93;3.40;;;;;;;;;;5032726;28;20056;-70
2023/05/23 11:15:19;;;;;;;14.60;3.60;;;;;;;;;;5014374;28;20045;-72
2023/05/23 11:17:55;;;;;;;11.38;3.25;;;;;;;;;;5032627;28;20414;-72
2023/05/23 11:20:25;;;;;;;12.70;3.35;;;;;;;;;;5031533;28;20033;-71
2023/05/23 11:22:55;;;;;;;14.45;3.60;;;;;;;;;;5031688;28;20454;-71
2023/05/23 11:25:21;;;;;;;11.75;3.13;;;;;;;;;;5031683;28;20037;-71
2023/05/23 11:27:49;;;;;;;11.45;3.33;;;;;;;;;;5014255;28;20501;-71
2023/05/23 11:30:18;;;;;;;15.57;3.38;;;;;;;;;;5031711;28;20130;-71
2023/05/23 11:32:52;;;;;;;10.95;3.35;;;;;;;;;;5032159;28;20050;-71
2023/05/23 11:35:18;;;;;;;15.35;3.92;;;;;;;;;;5031787;28;20077;-72
2023/05/23 11:37:44;;;;;;;13.60;3.83;;;;;;;;;;5032378;28;20145;-71
2023/05/23 11:40:29;;;;;;;14.18;3.22;;;;;;;;;;5014138;28;20049;-72
2023/05/23 11:42:56;;;;;;;14.40;3.55;;;;;;;;;;5032328;28;20042;-71
2023/05/23 11:45:22;;;;;;;12.48;3.33;;;;;;;;;;5031884;28;20108;-72
2023/05/23 11:47:48;;;;;;;9.80;2.88;;;;;;;;;;5032232;28;20072;-71
2023/05/23 11:50:15;;;;;;;14.43;3.35;;;;;;;;;;5031808;28;20041;-72
2023/05/23 11:52:41;;;;;;;10.50;3.00;;;;;;;;;;5032111;28;20076;-71
2023/05/23 11:55:08;;;;;;;16.73;2.92;;;;;;;;;;5014146;28;20084;-71
2023/05/23 11:57:37;;;;;;;12.68;3.45;;;;;;;;;;5032077;28;20052;-71
2023/05/23 12:00:06;;;;;;;10.40;2.90;;;;;;;;;;5031554;28;20447;-71
2023/05/23 12:02:38;;;;;;;12.77;3.30;;;;;;;;;;5013847;28;20049;-72
2023/05/23 12:05:08;;;;;;;10.52;3.28;;;;;;;;;;5031527;28;20144;-72
2023/05/23 12:07:35;;;;;;;10.95;3.20;;;;;;;;;;5031600;28;20078;-71
2023/05/23 12:10:02;;;;;;;11.50;3.20;;;;;;;;;;5031266;28;20054;-72
2023/05/23 12:12:28;;;;;;;10.60;3.05;;;;;;;;;;5030154;28;20085;-71
2023/05/23 12:14:55;;;;;;;12.30;3.20;;;;;;;;;;5030659;28;20529;-71
2023/05/23 12:17:22;;;;;;;12.45;3.10;;;;;;;;;;5031600;28;20057;-71
2023/05/23 12:19:48;;;;;;;11.20;3.10;;;;;;;;;;5030842;28;20512;-73
2023/05/23 12:22:15;;;;;;;14.10;3.45;;;;;;;;;;5035122;28;20363;-70
2023/05/23 12:24:46;;;;;;;12.48;3.47;;;;;;;;;;5034942;28;20510;-71
2023/05/23 12:27:12;;;;;;;11.82;3.67;;;;;;;;;;5035053;28;20081;-71
2023/05/23 12:29:38;;;;;;;14.52;3.38;;;;;;;;;;5034588;28;20411;-71
2023/05/23 12:32:06;;;;;;;12.90;2.92;;;;;;;;;;5035028;28;20052;-71
2023/05/23 12:34:32;;;;;;;12.60;3.22;;;;;;;;;;5035106;28;20046;-70
2023/05/23 12:36:59;;;;;;;15.63;4.07;;;;;;;;;;5017294;28;20064;-71
2023/05/23 12:39:27;;;;;;;16.48;3.35;;;;;;;;;;5033829;28;20183;-70
2023/05/23 12:41:57;;;;;;;8.70;2.75;;;;;;;;;;5034891;28;20120;-71
2023/05/23 12:44:23;;;;;;;10.30;3.00;;;;;;;;;;5033711;28;20393;-70
2023/05/23 12:46:49;;;;;;;10.85;2.92;;;;;;;;;;5034617;28;20143;-71
2023/05/23 12:49:15;;;;;;;11.50;2.85;;;;;;;;;;5033551;28;20045;-71
2023/05/23 12:51:42;;;;;;;10.20;3.00;;;;;;;;;;5032468;28;20057;-71
2023/05/23 12:54:08;;;;;;;17.27;3.42;;;;;;;;;;5034463;28;20437;-71
2023/05/23 12:56:34;;;;;;;14.32;3.22;;;;;;;;;;5034632;28;20430;-72
2023/05/23 12:59:00;;;;;;;15.52;3.35;;;;;;;;;;5034256;28;20056;-71
2023/05/23 13:01:27;;;;;;;15.18;3.55;;;;;;;;;;5034159;28;20056;-71
2023/05/23 13:03:53;;;;;;;11.38;2.97;;;;;;;;;;5016619;28;20061;-72
2023/05/23 13:06:19;;;;;;;13.75;3.05;;;;;;;;;;5032742;28;20053;-70
2023/05/23 13:08:45;;;;;;;14.52;3.10;;;;;;;;;;5032650;28;20053;-71
2023/05/23 13:11:12;;;;;;;13.13;3.22;;;;;;;;;;5032724;28;20041;-72
2023/05/23 13:13:38;;;;;;;10.95;2.60;;;;;;;;;;5034564;28;20049;-71
2023/05/23 13:16:04;;;;;;;13.98;3.00;;;;;;;;;;5033321;28;20053;-71
2023/05/23 13:18:30;;;;;;;13.50;3.20;;;;;;;;;;5032295;28;20049;-72
2023/05/23 13:20:56;;;;;;;11.45;2.88;;;;;;;;;;5033415;28;20053;-72
2023/05/23 13:23:24;;;;;;;10.38;2.90;;;;;;;;;;5033970;28;20038;-70
2023/05/23 13:25:50;;;;;;;14.85;3.10;;;;;;;;;;5034162;28;20053;-71
2023/05/23 13:28:17;;;;;;;12.27;2.80;;;;;;;;;;5015959;28;20053;-72
2023/05/23 13:30:43;;;;;;;8.45;2.88;;;;;;;;;;5032041;28;20403;-71
2023/05/23 13:33:09;;;;;;;9.10;2.58;;;;;;;;;;5034287;28;20077;-71
2023/05/23 13:35:35;;;;;;;14.07;3.35;;;;;;;;;;5033847;28;20064;-71
2023/05/23 13:38:01;;;;;;;10.50;2.97;;;;;;;;;;5034508;28;20041;-71
2023/05/23 13:40:27;;;;;;;13.85;2.80;;;;;;;;;;5037387;28;20375;-72
2023/05/23 13:42:53;;;;;;;13.48;3.15;;;;;;;;;;5036912;28;20038;-71
2023/05/23 13:45:21;;;;;;;14.18;3.60;;;;;;;;;;5032972;28;20041;-71
2023/05/23 13:47:47;;;;;;;14.02;3.42;;;;;;;;;;5033559;28;20045;-71
2023/05/23 13:50:13;;;;;;;11.18;2.90;;;;;;;;;;5033250;28;20084;-71
2023/05/23 13:52:39;;;;;;;17.00;3.35;;;;;;;;;;5033373;28;20049;-71
2023/05/23 13:55:06;;;;;;;16.90;3.40;;;;;;;;;;5033353;28;20049;-70
2023/05/23 13:57:32;;;;;;;12.43;2.90;;;;;;;;;;5033343;28;20103;-71
2023/05/23 13:59:58;;;;;;;13.70;3.10;;;;;;;;;;5032906;28;20099;-72
2023/05/23 14:02:25;;;;;;;10.60;2.80;;;;;;;;;;5033009;28;20052;-71
2023/05/23 14:04:51;;;;;;;12.95;2.70;;;;;;;;;;5033039;28;20146;-71
2023/05/23 14:07:18;;;;;;;15.57;2.83;;;;;;;;;;5033138;28;20053;-71
2023/05/23 14:09:44;;;;;;;16.05;3.22;;;;;;;;;;5033161;28;20094;-70
2023/05/23 14:12:10;;;;;;;13.00;3.03;;;;;;;;;;5033222;28;20049;-70
2023/05/23 14:14:36;;;;;;;11.57;3.20;;;;;;;;;;5033392;28;20049;-70
2023/05/23 14:17:02;;;;;;;16.60;3.90;;;;;;;;;;5033300;28;20038;-72
2023/05/23 14:19:28;;;;;;;15.88;3.38;;;;;;;;;;5031493;28;20051;-72
2023/05/23 14:21:54;;;;;;;13.25;3.13;;;;;;;;;;5032966;28;20128;-72
2023/05/23 14:24:21;;;;;;;14.68;3.45;;;;;;;;;;5015258;28;20129;-70
2023/05/23 14:26:48;;;;;;;15.07;3.47;;;;;;;;;;5031988;28;20442;-70
2023/05/23 14:29:14;;;;;;;13.93;3.05;;;;;;;;;;5033100;28;20046;-71